This is the latest recevied weather packets stored in our database for station/object VU3OPZ-13. If no packets are shown the sender has not sent any weather packets the latest 10 day(s).
| Time | Temp. | Humidity | Pressure | Rain* | Wind** | Luminosity | Snow |
|---|---|---|---|---|---|---|---|
| 1787408145 | 23.89° C | 80% | 1010 hPa | 0 mm | - | - | - |
| 1787406341 | 23.89° C | 81% | 1010 hPa | 0 mm | - | - | - |
| 1787404544 | 25° C | 74% | 1009 hPa | 0 mm | - | - | - |
| 1787402732 | 25° C | 74% | 1009 hPa | 0 mm | - | - | - |
| 1787400927 | 26.11° C | 68% | 1008 hPa | 0 mm | - | - | - |
| 1787399123 | 26.11° C | 68% | 1008 hPa | 0 mm | - | - | - |
| 1787397319 | 27.22° C | 64% | 1008 hPa | 0 mm | - | - | - |
| 1787395514 | 27.22° C | 64% | 1008 hPa | 0 mm | - | - | - |
| 1787393710 | 27.78° C | 61% | 1008 hPa | 0 mm | - | - | - |
| 1787391906 | 27.78° C | 61% | 1008 hPa | 0 mm | - | - | - |
| 1787390101 | 28.33° C | 60% | 1008 hPa | 0 mm | - | - | - |
| 1787388297 | 28.33° C | 59% | 1008 hPa | 0 mm | - | - | - |
| 1787386492 | 28.33° C | 60% | 1009 hPa | 0.25 mm | - | - | - |
| 1787384688 | 28.33° C | 59% | 1009 hPa | 0.25 mm | - | - | - |
| 1787382884 | 28.33° C | 61% | 1010 hPa | 0 mm | - | - | - |
| 1787381079 | 28.33° C | 60% | 1010 hPa | 0 mm | - | - | - |
| 1787379275 | 27.78° C | 61% | 1011 hPa | 0 mm | - | - | - |
| 1787377471 | 27.78° C | 62% | 1011 hPa | 0 mm | - | - | - |
| 1787375666 | 26.67° C | 68% | 1011 hPa | 0 mm | - | - | - |
| 1787373863 | 26.11° C | 68% | 1011 hPa | 0 mm | - | - | - |
| 1787372058 | 24.44° C | 77% | 1012 hPa | 0 mm | - | - | - |
| 1787363069 | 22.22° C | 86% | 1011 hPa | 0 mm | - | - | - |
| 1787361265 | 21.11° C | 91% | 1011 hPa | 0 mm | - | - | - |
| 1787359460 | 21.11° C | 92% | 1011 hPa | 0 mm | - | - | - |
| 1787357656 | 21.11° C | 92% | 1010 hPa | 0 mm | - | - | - |
* Rain latest hour (hover to see other rain measurements)
** Current wind speed in m/s (hover to see current wind gust speed)